Strona główna
METAR-TAF:

METAR-TAF

Lotnisko :

Port lotniczy Buochs

Buochs, Szwajcaria

Szerokość geograficzna: 46-58-28N, Długość geograficzna: 8-23-49E, wysokość: 449 m

Aktualna obserwacja pogody

Raport powstał 23 minut temu, godzina 23:50 UTC
Wiatr 3 kt od zachód, zmienny między zachodnio-południowy zachód i północny zachód
Temperatura 23°C
Wilgotność 69%
Ciśnienie 1019 hPa
Widzialność 10 km lub więcej
Brak chmur poniżej 1500 m i brak chmur cumulonimbus

METAR: LSZC 232350Z AUTO 26003KT 240V320 CAVOK 23/17 Q1019

czas: 02:13 (00:13 UTC)

Prognoza

Raport powstał 9 godziny i 48 minut temu, godzina 14:25 UTC
Prognoza ważna od 23 godzina 15 UTC do 23 godzina 24 UTC
Wiatr 4 kt od południowy wschód
Widzialność 10 km lub więcej
Brak chmur poniżej 1500 m i brak chmur cumulonimbus

TAF: LSZC 231425Z 2315/2324 13004KT CAVOK

Obserwacja i prognoza pogody dla ponad 4000 lotnisk (raport METAR i TAF).

Dostępne stacje oznaczono żółtymi i czerwonymi punktami na mapie.

Najedź kursorem aby zobaczyć nazwę stacji.

Kliknij aby zobaczyć obserwacje i prognozy pogody.

Aby zmienić mapę: kliknij na zielony przycisk z czarnym krzyżykiem, aby powiększyć; na zielony przycisk z myślnikiem, aby pomniejszyć; na zielone strzałki, aby przejść do map sąsiednich.


METAR-TAF: